sensor_id;sensor_type;location;lat;lon;timestamp;P1;durP1;ratioP1;P2;durP2;ratioP2
64957;SDS011;51486;50.232;19.208;2023-06-26T00:01:06;8.43;;;4.00;;
64957;SDS011;51486;50.232;19.208;2023-06-26T00:03:53;6.97;;;3.17;;
64957;SDS011;51486;50.232;19.208;2023-06-26T00:06:38;7.40;;;3.70;;
64957;SDS011;51486;50.232;19.208;2023-06-26T00:09:24;8.13;;;3.53;;
64957;SDS011;51486;50.232;19.208;2023-06-26T00:12:10;6.67;;;2.83;;
64957;SDS011;51486;50.232;19.208;2023-06-26T00:14:56;4.77;;;3.23;;
64957;SDS011;51486;50.232;19.208;2023-06-26T00:17:42;6.70;;;3.67;;
64957;SDS011;51486;50.232;19.208;2023-06-26T00:20:28;7.67;;;3.20;;
64957;SDS011;51486;50.232;19.208;2023-06-26T00:23:15;5.00;;;3.53;;
64957;SDS011;51486;50.232;19.208;2023-06-26T00:26:03;4.77;;;3.07;;
64957;SDS011;51486;50.232;19.208;2023-06-26T00:28:49;5.50;;;3.30;;
64957;SDS011;51486;50.232;19.208;2023-06-26T00:31:35;6.63;;;3.90;;
64957;SDS011;51486;50.232;19.208;2023-06-26T00:34:21;7.57;;;3.73;;
64957;SDS011;51486;50.232;19.208;2023-06-26T00:37:07;12.07;;;4.07;;
64957;SDS011;51486;50.232;19.208;2023-06-26T00:39:52;6.00;;;3.93;;
64957;SDS011;51486;50.232;19.208;2023-06-26T00:42:38;7.17;;;3.80;;
64957;SDS011;51486;50.232;19.208;2023-06-26T00:45:24;6.20;;;3.97;;
64957;SDS011;51486;50.232;19.208;2023-06-26T00:48:10;5.93;;;4.00;;
64957;SDS011;51486;50.232;19.208;2023-06-26T00:50:59;6.90;;;3.57;;
64957;SDS011;51486;50.232;19.208;2023-06-26T00:53:45;5.87;;;3.60;;
64957;SDS011;51486;50.232;19.208;2023-06-26T00:56:31;6.33;;;3.43;;
64957;SDS011;51486;50.232;19.208;2023-06-26T00:59:17;5.77;;;3.33;;
64957;SDS011;51486;50.232;19.208;2023-06-26T01:02:02;8.53;;;4.53;;
64957;SDS011;51486;50.232;19.208;2023-06-26T01:04:51;5.27;;;3.40;;
64957;SDS011;51486;50.232;19.208;2023-06-26T01:07:38;9.23;;;4.37;;
64957;SDS011;51486;50.232;19.208;2023-06-26T01:10:24;9.77;;;4.33;;
64957;SDS011;51486;50.232;19.208;2023-06-26T01:13:13;7.47;;;4.33;;
64957;SDS011;51486;50.232;19.208;2023-06-26T01:15:59;9.47;;;4.37;;
64957;SDS011;51486;50.232;19.208;2023-06-26T01:18:45;6.33;;;3.90;;
64957;SDS011;51486;50.232;19.208;2023-06-26T01:21:31;11.50;;;4.80;;
64957;SDS011;51486;50.232;19.208;2023-06-26T01:24:18;8.23;;;4.47;;
64957;SDS011;51486;50.232;19.208;2023-06-26T01:27:12;8.17;;;4.97;;
64957;SDS011;51486;50.232;19.208;2023-06-26T01:30:00;12.63;;;4.30;;
64957;SDS011;51486;50.232;19.208;2023-06-26T01:32:49;10.40;;;4.47;;
64957;SDS011;51486;50.232;19.208;2023-06-26T01:35:35;8.83;;;4.53;;
64957;SDS011;51486;50.232;19.208;2023-06-26T01:38:21;8.10;;;3.73;;
64957;SDS011;51486;50.232;19.208;2023-06-26T01:41:11;6.60;;;3.50;;
64957;SDS011;51486;50.232;19.208;2023-06-26T01:44:09;8.83;;;4.43;;
64957;SDS011;51486;50.232;19.208;2023-06-26T01:47:02;5.37;;;4.10;;
64957;SDS011;51486;50.232;19.208;2023-06-26T01:49:51;7.97;;;4.10;;
64957;SDS011;51486;50.232;19.208;2023-06-26T01:53:07;16.97;;;3.80;;
64957;SDS011;51486;50.232;19.208;2023-06-26T01:55:59;12.17;;;4.20;;
64957;SDS011;51486;50.232;19.208;2023-06-26T01:58:47;9.77;;;4.33;;
64957;SDS011;51486;50.232;19.208;2023-06-26T02:01:34;9.50;;;4.53;;
64957;SDS011;51486;50.232;19.208;2023-06-26T02:04:20;9.27;;;4.10;;
64957;SDS011;51486;50.232;19.208;2023-06-26T02:07:06;9.53;;;4.20;;
64957;SDS011;51486;50.232;19.208;2023-06-26T02:09:52;7.47;;;3.97;;
64957;SDS011;51486;50.232;19.208;2023-06-26T02:12:38;5.70;;;4.07;;
64957;SDS011;51486;50.232;19.208;2023-06-26T02:15:24;6.90;;;4.07;;
64957;SDS011;51486;50.232;19.208;2023-06-26T02:18:10;7.83;;;4.53;;
64957;SDS011;51486;50.232;19.208;2023-06-26T02:20:55;9.43;;;4.43;;
64957;SDS011;51486;50.232;19.208;2023-06-26T02:23:41;9.60;;;5.20;;
64957;SDS011;51486;50.232;19.208;2023-06-26T02:26:27;11.17;;;5.87;;
64957;SDS011;51486;50.232;19.208;2023-06-26T02:29:13;14.37;;;5.93;;
64957;SDS011;51486;50.232;19.208;2023-06-26T02:31:59;10.60;;;5.63;;
64957;SDS011;51486;50.232;19.208;2023-06-26T02:34:44;18.17;;;6.97;;
64957;SDS011;51486;50.232;19.208;2023-06-26T02:37:30;12.13;;;5.17;;
64957;SDS011;51486;50.232;19.208;2023-06-26T02:40:16;10.63;;;5.37;;
64957;SDS011;51486;50.232;19.208;2023-06-26T02:43:01;12.43;;;5.40;;
64957;SDS011;51486;50.232;19.208;2023-06-26T02:45:47;9.57;;;4.83;;
64957;SDS011;51486;50.232;19.208;2023-06-26T02:48:33;13.00;;;5.23;;
64957;SDS011;51486;50.232;19.208;2023-06-26T02:51:19;11.17;;;4.97;;
64957;SDS011;51486;50.232;19.208;2023-06-26T02:54:04;7.83;;;4.70;;
64957;SDS011;51486;50.232;19.208;2023-06-26T02:56:50;10.83;;;5.87;;
64957;SDS011;51486;50.232;19.208;2023-06-26T02:59:36;14.10;;;5.50;;
64957;SDS011;51486;50.232;19.208;2023-06-26T03:02:22;14.23;;;6.17;;
64957;SDS011;51486;50.232;19.208;2023-06-26T03:05:08;9.60;;;5.40;;
64957;SDS011;51486;50.232;19.208;2023-06-26T03:07:54;15.10;;;6.37;;
64957;SDS011;51486;50.232;19.208;2023-06-26T03:10:39;18.00;;;5.87;;
64957;SDS011;51486;50.232;19.208;2023-06-26T03:13:25;16.63;;;4.97;;
64957;SDS011;51486;50.232;19.208;2023-06-26T03:16:11;14.73;;;5.67;;
64957;SDS011;51486;50.232;19.208;2023-06-26T03:18:56;16.73;;;7.07;;
64957;SDS011;51486;50.232;19.208;2023-06-26T03:21:42;14.57;;;6.17;;
64957;SDS011;51486;50.232;19.208;2023-06-26T03:24:28;13.93;;;5.47;;
64957;SDS011;51486;50.232;19.208;2023-06-26T03:27:14;13.47;;;5.77;;
64957;SDS011;51486;50.232;19.208;2023-06-26T03:29:59;17.43;;;6.33;;
64957;SDS011;51486;50.232;19.208;2023-06-26T03:32:45;7.50;;;5.17;;
64957;SDS011;51486;50.232;19.208;2023-06-26T03:35:31;10.43;;;6.00;;
64957;SDS011;51486;50.232;19.208;2023-06-26T03:38:16;11.03;;;6.70;;
64957;SDS011;51486;50.232;19.208;2023-06-26T03:41:02;10.83;;;5.10;;
64957;SDS011;51486;50.232;19.208;2023-06-26T03:43:48;10.37;;;5.73;;
64957;SDS011;51486;50.232;19.208;2023-06-26T03:46:34;13.53;;;5.97;;
64957;SDS011;51486;50.232;19.208;2023-06-26T03:49:20;10.03;;;5.67;;
64957;SDS011;51486;50.232;19.208;2023-06-26T03:52:06;7.23;;;5.00;;
64957;SDS011;51486;50.232;19.208;2023-06-26T03:54:51;14.83;;;6.13;;
64957;SDS011;51486;50.232;19.208;2023-06-26T03:57:37;10.60;;;5.73;;
64957;SDS011;51486;50.232;19.208;2023-06-26T04:00:23;14.23;;;5.90;;
64957;SDS011;51486;50.232;19.208;2023-06-26T04:03:08;16.97;;;6.00;;
64957;SDS011;51486;50.232;19.208;2023-06-26T04:05:54;15.83;;;7.07;;
64957;SDS011;51486;50.232;19.208;2023-06-26T04:08:40;12.67;;;5.50;;
64957;SDS011;51486;50.232;19.208;2023-06-26T04:11:26;18.90;;;6.07;;
64957;SDS011;51486;50.232;19.208;2023-06-26T04:14:12;9.90;;;5.63;;
64957;SDS011;51486;50.232;19.208;2023-06-26T04:16:58;19.43;;;5.83;;
64957;SDS011;51486;50.232;19.208;2023-06-26T04:19:47;13.77;;;6.03;;
64957;SDS011;51486;50.232;19.208;2023-06-26T04:22:33;13.00;;;6.43;;
64957;SDS011;51486;50.232;19.208;2023-06-26T04:25:18;9.20;;;5.03;;
64957;SDS011;51486;50.232;19.208;2023-06-26T04:28:04;11.43;;;4.80;;
64957;SDS011;51486;50.232;19.208;2023-06-26T04:30:50;9.57;;;5.13;;
64957;SDS011;51486;50.232;19.208;2023-06-26T04:33:36;11.67;;;5.40;;
64957;SDS011;51486;50.232;19.208;2023-06-26T04:36:22;11.97;;;5.27;;
64957;SDS011;51486;50.232;19.208;2023-06-26T04:39:08;9.93;;;4.23;;
64957;SDS011;51486;50.232;19.208;2023-06-26T04:41:54;8.43;;;4.87;;
64957;SDS011;51486;50.232;19.208;2023-06-26T04:44:40;9.67;;;4.90;;
64957;SDS011;51486;50.232;19.208;2023-06-26T04:47:26;10.97;;;4.67;;
64957;SDS011;51486;50.232;19.208;2023-06-26T04:50:12;8.17;;;4.83;;
64957;SDS011;51486;50.232;19.208;2023-06-26T04:52:57;10.03;;;4.97;;
64957;SDS011;51486;50.232;19.208;2023-06-26T04:55:43;13.17;;;4.97;;
64957;SDS011;51486;50.232;19.208;2023-06-26T04:58:29;7.63;;;3.83;;
64957;SDS011;51486;50.232;19.208;2023-06-26T05:01:15;9.83;;;4.63;;
64957;SDS011;51486;50.232;19.208;2023-06-26T05:04:01;9.83;;;3.97;;
64957;SDS011;51486;50.232;19.208;2023-06-26T05:06:47;6.13;;;3.63;;
64957;SDS011;51486;50.232;19.208;2023-06-26T05:09:33;8.20;;;4.87;;
64957;SDS011;51486;50.232;19.208;2023-06-26T05:12:19;9.43;;;4.93;;
64957;SDS011;51486;50.232;19.208;2023-06-26T05:15:05;13.27;;;5.43;;
64957;SDS011;51486;50.232;19.208;2023-06-26T05:17:51;7.07;;;4.80;;
64957;SDS011;51486;50.232;19.208;2023-06-26T05:20:36;6.40;;;4.00;;
64957;SDS011;51486;50.232;19.208;2023-06-26T05:23:23;11.53;;;4.53;;
64957;SDS011;51486;50.232;19.208;2023-06-26T05:26:11;6.30;;;4.33;;
64957;SDS011;51486;50.232;19.208;2023-06-26T05:28:58;7.50;;;4.47;;
64957;SDS011;51486;50.232;19.208;2023-06-26T05:31:44;6.87;;;3.67;;
64957;SDS011;51486;50.232;19.208;2023-06-26T05:34:30;7.70;;;3.87;;
64957;SDS011;51486;50.232;19.208;2023-06-26T05:37:19;11.03;;;4.57;;
64957;SDS011;51486;50.232;19.208;2023-06-26T05:40:07;10.03;;;4.10;;
64957;SDS011;51486;50.232;19.208;2023-06-26T05:42:54;9.33;;;5.00;;
64957;SDS011;51486;50.232;19.208;2023-06-26T05:45:40;6.80;;;3.87;;
64957;SDS011;51486;50.232;19.208;2023-06-26T05:48:26;5.77;;;3.97;;
64957;SDS011;51486;50.232;19.208;2023-06-26T05:51:12;5.70;;;3.33;;
64957;SDS011;51486;50.232;19.208;2023-06-26T05:53:57;7.33;;;3.80;;
64957;SDS011;51486;50.232;19.208;2023-06-26T05:56:43;8.20;;;3.67;;
64957;SDS011;51486;50.232;19.208;2023-06-26T05:59:33;10.30;;;3.60;;
64957;SDS011;51486;50.232;19.208;2023-06-26T06:02:22;7.93;;;3.63;;
64957;SDS011;51486;50.232;19.208;2023-06-26T06:05:08;9.50;;;4.03;;
64957;SDS011;51486;50.232;19.208;2023-06-26T06:07:54;6.60;;;3.87;;
64957;SDS011;51486;50.232;19.208;2023-06-26T06:10:40;8.00;;;3.33;;
64957;SDS011;51486;50.232;19.208;2023-06-26T06:13:25;7.23;;;3.57;;
64957;SDS011;51486;50.232;19.208;2023-06-26T06:16:11;4.57;;;2.80;;
64957;SDS011;51486;50.232;19.208;2023-06-26T06:18:57;10.90;;;3.97;;
64957;SDS011;51486;50.232;19.208;2023-06-26T06:21:42;4.53;;;3.13;;
64957;SDS011;51486;50.232;19.208;2023-06-26T06:24:28;5.73;;;3.13;;
64957;SDS011;51486;50.232;19.208;2023-06-26T06:27:14;6.17;;;3.10;;
64957;SDS011;51486;50.232;19.208;2023-06-26T06:30:00;4.43;;;3.07;;
64957;SDS011;51486;50.232;19.208;2023-06-26T06:32:45;5.90;;;3.10;;
64957;SDS011;51486;50.232;19.208;2023-06-26T06:35:35;4.73;;;2.80;;
64957;SDS011;51486;50.232;19.208;2023-06-26T06:38:21;4.80;;;2.77;;
64957;SDS011;51486;50.232;19.208;2023-06-26T06:41:06;5.90;;;3.23;;
64957;SDS011;51486;50.232;19.208;2023-06-26T06:43:52;6.63;;;2.83;;
64957;SDS011;51486;50.232;19.208;2023-06-26T06:46:38;6.65;;;2.65;;
64957;SDS011;51486;50.232;19.208;2023-06-26T06:49:23;13.13;;;3.08;;
64957;SDS011;51486;50.232;19.208;2023-06-26T06:52:09;11.20;;;3.38;;
64957;SDS011;51486;50.232;19.208;2023-06-26T06:54:56;4.90;;;2.60;;
64957;SDS011;51486;50.232;19.208;2023-06-26T06:57:50;6.60;;;3.15;;
64957;SDS011;51486;50.232;19.208;2023-06-26T07:00:36;3.50;;;2.42;;
64957;SDS011;51486;50.232;19.208;2023-06-26T07:03:21;3.08;;;2.58;;
64957;SDS011;51486;50.232;19.208;2023-06-26T07:06:07;8.25;;;2.78;;
64957;SDS011;51486;50.232;19.208;2023-06-26T07:08:53;5.95;;;2.80;;
64957;SDS011;51486;50.232;19.208;2023-06-26T07:11:39;4.45;;;2.42;;
64957;SDS011;51486;50.232;19.208;2023-06-26T07:14:24;5.07;;;2.40;;
64957;SDS011;51486;50.232;19.208;2023-06-26T07:17:10;5.03;;;2.67;;
64957;SDS011;51486;50.232;19.208;2023-06-26T07:19:56;5.88;;;3.08;;
64957;SDS011;51486;50.232;19.208;2023-06-26T07:22:42;5.85;;;2.85;;
64957;SDS011;51486;50.232;19.208;2023-06-26T07:25:30;7.53;;;2.55;;
64957;SDS011;51486;50.232;19.208;2023-06-26T07:28:15;6.57;;;3.05;;
64957;SDS011;51486;50.232;19.208;2023-06-26T07:31:01;8.07;;;3.17;;
64957;SDS011;51486;50.232;19.208;2023-06-26T07:33:47;5.28;;;2.60;;
64957;SDS011;51486;50.232;19.208;2023-06-26T07:36:32;6.45;;;2.65;;
64957;SDS011;51486;50.232;19.208;2023-06-26T07:39:18;3.92;;;2.58;;
64957;SDS011;51486;50.232;19.208;2023-06-26T07:42:04;6.70;;;2.80;;
64957;SDS011;51486;50.232;19.208;2023-06-26T07:44:49;6.82;;;3.45;;
64957;SDS011;51486;50.232;19.208;2023-06-26T07:47:36;4.95;;;2.30;;
64957;SDS011;51486;50.232;19.208;2023-06-26T07:50:22;3.45;;;2.35;;
64957;SDS011;51486;50.232;19.208;2023-06-26T07:53:09;4.90;;;2.63;;
64957;SDS011;51486;50.232;19.208;2023-06-26T07:55:54;5.35;;;2.65;;
64957;SDS011;51486;50.232;19.208;2023-06-26T07:58:40;3.85;;;1.65;;
64957;SDS011;51486;50.232;19.208;2023-06-26T08:01:26;4.25;;;2.03;;
64957;SDS011;51486;50.232;19.208;2023-06-26T08:04:12;7.95;;;2.72;;
64957;SDS011;51486;50.232;19.208;2023-06-26T08:06:58;3.72;;;2.38;;
64957;SDS011;51486;50.232;19.208;2023-06-26T08:09:45;5.82;;;2.17;;
64957;SDS011;51486;50.232;19.208;2023-06-26T08:12:30;12.60;;;2.58;;
64957;SDS011;51486;50.232;19.208;2023-06-26T08:15:16;4.45;;;3.13;;
64957;SDS011;51486;50.232;19.208;2023-06-26T08:18:02;6.95;;;2.40;;
64957;SDS011;51486;50.232;19.208;2023-06-26T08:20:47;3.88;;;1.90;;
64957;SDS011;51486;50.232;19.208;2023-06-26T08:23:33;4.25;;;2.20;;
64957;SDS011;51486;50.232;19.208;2023-06-26T08:26:19;2.15;;;1.45;;
64957;SDS011;51486;50.232;19.208;2023-06-26T08:29:05;3.85;;;1.90;;
64957;SDS011;51486;50.232;19.208;2023-06-26T08:31:53;3.63;;;1.92;;
64957;SDS011;51486;50.232;19.208;2023-06-26T08:34:39;2.92;;;1.73;;
64957;SDS011;51486;50.232;19.208;2023-06-26T08:37:24;2.10;;;1.27;;
64957;SDS011;51486;50.232;19.208;2023-06-26T08:40:10;2.67;;;1.63;;
64957;SDS011;51486;50.232;19.208;2023-06-26T08:42:56;3.13;;;1.85;;
64957;SDS011;51486;50.232;19.208;2023-06-26T08:45:42;2.53;;;1.42;;
64957;SDS011;51486;50.232;19.208;2023-06-26T08:48:32;4.80;;;1.58;;
64957;SDS011;51486;50.232;19.208;2023-06-26T08:51:19;2.03;;;1.55;;
64957;SDS011;51486;50.232;19.208;2023-06-26T08:54:07;3.50;;;1.80;;
64957;SDS011;51486;50.232;19.208;2023-06-26T08:56:57;2.30;;;1.55;;
64957;SDS011;51486;50.232;19.208;2023-06-26T08:59:44;2.85;;;1.92;;
64957;SDS011;51486;50.232;19.208;2023-06-26T09:02:32;9.25;;;2.25;;
64957;SDS011;51486;50.232;19.208;2023-06-26T09:05:18;4.63;;;1.92;;
64957;SDS011;51486;50.232;19.208;2023-06-26T09:08:04;4.90;;;1.52;;
64957;SDS011;51486;50.232;19.208;2023-06-26T09:10:51;7.55;;;1.52;;
64957;SDS011;51486;50.232;19.208;2023-06-26T09:13:37;3.17;;;1.52;;
64957;SDS011;51486;50.232;19.208;2023-06-26T09:16:26;3.85;;;1.90;;
64957;SDS011;51486;50.232;19.208;2023-06-26T09:19:12;2.95;;;2.08;;
64957;SDS011;51486;50.232;19.208;2023-06-26T09:21:58;5.07;;;1.80;;
64957;SDS011;51486;50.232;19.208;2023-06-26T09:24:44;1.67;;;1.35;;
64957;SDS011;51486;50.232;19.208;2023-06-26T09:27:30;2.13;;;1.50;;
64957;SDS011;51486;50.232;19.208;2023-06-26T09:30:17;2.88;;;1.48;;
64957;SDS011;51486;50.232;19.208;2023-06-26T09:33:13;3.45;;;1.50;;
64957;SDS011;51486;50.232;19.208;2023-06-26T09:36:00;1.80;;;1.17;;
64957;SDS011;51486;50.232;19.208;2023-06-26T09:38:46;1.85;;;1.20;;
64957;SDS011;51486;50.232;19.208;2023-06-26T09:41:32;3.80;;;1.83;;
64957;SDS011;51486;50.232;19.208;2023-06-26T09:44:18;1.40;;;1.20;;
64957;SDS011;51486;50.232;19.208;2023-06-26T09:47:04;6.57;;;1.40;;
64957;SDS011;51486;50.232;19.208;2023-06-26T09:49:49;3.85;;;1.63;;
64957;SDS011;51486;50.232;19.208;2023-06-26T09:52:36;3.70;;;1.60;;
64957;SDS011;51486;50.232;19.208;2023-06-26T09:55:22;1.95;;;0.88;;
64957;SDS011;51486;50.232;19.208;2023-06-26T09:58:08;10.80;;;3.28;;
64957;SDS011;51486;50.232;19.208;2023-06-26T10:00:54;3.38;;;2.17;;
64957;SDS011;51486;50.232;19.208;2023-06-26T10:03:40;4.38;;;1.80;;
64957;SDS011;51486;50.232;19.208;2023-06-26T10:06:32;5.70;;;2.03;;
64957;SDS011;51486;50.232;19.208;2023-06-26T10:09:20;4.20;;;2.00;;
64957;SDS011;51486;50.232;19.208;2023-06-26T10:12:11;2.72;;;1.75;;
64957;SDS011;51486;50.232;19.208;2023-06-26T10:15:03;4.15;;;1.85;;
64957;SDS011;51486;50.232;19.208;2023-06-26T10:17:50;2.25;;;1.30;;
64957;SDS011;51486;50.232;19.208;2023-06-26T10:20:37;2.95;;;1.50;;
64957;SDS011;51486;50.232;19.208;2023-06-26T10:23:23;7.82;;;1.20;;
64957;SDS011;51486;50.232;19.208;2023-06-26T10:26:11;1.38;;;1.02;;
64957;SDS011;51486;50.232;19.208;2023-06-26T10:28:58;3.53;;;1.65;;
64957;SDS011;51486;50.232;19.208;2023-06-26T10:31:48;1.20;;;0.98;;
64957;SDS011;51486;50.232;19.208;2023-06-26T10:34:36;4.25;;;1.80;;
64957;SDS011;51486;50.232;19.208;2023-06-26T10:37:41;2.38;;;1.42;;
64957;SDS011;51486;50.232;19.208;2023-06-26T10:40:39;2.60;;;1.73;;
64957;SDS011;51486;50.232;19.208;2023-06-26T10:43:30;3.65;;;1.58;;
64957;SDS011;51486;50.232;19.208;2023-06-26T10:46:17;3.45;;;2.15;;
64957;SDS011;51486;50.232;19.208;2023-06-26T10:49:04;2.30;;;1.45;;
64957;SDS011;51486;50.232;19.208;2023-06-26T10:51:50;3.60;;;1.65;;
64957;SDS011;51486;50.232;19.208;2023-06-26T10:54:36;1.90;;;1.48;;
64957;SDS011;51486;50.232;19.208;2023-06-26T10:57:25;6.85;;;1.73;;
64957;SDS011;51486;50.232;19.208;2023-06-26T11:00:11;3.25;;;2.17;;
64957;SDS011;51486;50.232;19.208;2023-06-26T11:03:00;3.22;;;1.83;;
64957;SDS011;51486;50.232;19.208;2023-06-26T11:05:46;2.97;;;1.65;;
64957;SDS011;51486;50.232;19.208;2023-06-26T11:09:00;4.05;;;1.95;;
64957;SDS011;51486;50.232;19.208;2023-06-26T11:14:44;3.53;;;1.20;;
64957;SDS011;51486;50.232;19.208;2023-06-26T11:17:30;8.23;;;2.00;;
64957;SDS011;51486;50.232;19.208;2023-06-26T11:20:16;3.47;;;1.60;;
64957;SDS011;51486;50.232;19.208;2023-06-26T11:23:03;5.25;;;2.30;;
64957;SDS011;51486;50.232;19.208;2023-06-26T11:25:51;5.40;;;1.98;;
64957;SDS011;51486;50.232;19.208;2023-06-26T11:28:37;3.10;;;1.63;;
64957;SDS011;51486;50.232;19.208;2023-06-26T11:31:23;1.75;;;1.48;;
64957;SDS011;51486;50.232;19.208;2023-06-26T11:34:11;4.65;;;1.45;;
64957;SDS011;51486;50.232;19.208;2023-06-26T11:36:58;1.50;;;1.13;;
64957;SDS011;51486;50.232;19.208;2023-06-26T11:39:46;2.40;;;1.30;;
64957;SDS011;51486;50.232;19.208;2023-06-26T11:42:32;2.75;;;1.70;;
64957;SDS011;51486;50.232;19.208;2023-06-26T11:45:21;2.53;;;1.27;;
64957;SDS011;51486;50.232;19.208;2023-06-26T11:48:07;2.58;;;1.30;;
64957;SDS011;51486;50.232;19.208;2023-06-26T11:50:54;14.25;;;2.00;;
64957;SDS011;51486;50.232;19.208;2023-06-26T11:53:43;3.92;;;2.30;;
64957;SDS011;51486;50.232;19.208;2023-06-26T11:56:29;2.70;;;1.58;;
64957;SDS011;51486;50.232;19.208;2023-06-26T11:59:15;2.72;;;1.27;;
64957;SDS011;51486;50.232;19.208;2023-06-26T12:02:04;3.47;;;1.30;;
64957;SDS011;51486;50.232;19.208;2023-06-26T12:04:51;2.85;;;1.80;;
64957;SDS011;51486;50.232;19.208;2023-06-26T12:07:37;2.10;;;1.70;;
64957;SDS011;51486;50.232;19.208;2023-06-26T12:10:23;3.03;;;1.65;;
64957;SDS011;51486;50.232;19.208;2023-06-26T12:13:09;4.78;;;1.55;;
64957;SDS011;51486;50.232;19.208;2023-06-26T12:15:54;4.55;;;1.33;;
64957;SDS011;51486;50.232;19.208;2023-06-26T12:18:40;2.03;;;1.35;;
64957;SDS011;51486;50.232;19.208;2023-06-26T12:24:26;3.28;;;1.83;;
64957;SDS011;51486;50.232;19.208;2023-06-26T12:27:13;3.95;;;1.80;;
64957;SDS011;51486;50.232;19.208;2023-06-26T12:29:59;3.30;;;1.67;;
64957;SDS011;51486;50.232;19.208;2023-06-26T12:32:49;5.68;;;1.70;;
64957;SDS011;51486;50.232;19.208;2023-06-26T12:35:34;7.13;;;1.85;;
64957;SDS011;51486;50.232;19.208;2023-06-26T12:38:21;2.83;;;1.60;;
64957;SDS011;51486;50.232;19.208;2023-06-26T12:41:14;3.75;;;1.73;;
64957;SDS011;51486;50.232;19.208;2023-06-26T12:44:00;7.22;;;1.60;;
64957;SDS011;51486;50.232;19.208;2023-06-26T12:46:47;3.25;;;1.50;;
64957;SDS011;51486;50.232;19.208;2023-06-26T12:49:34;2.33;;;1.45;;
64957;SDS011;51486;50.232;19.208;2023-06-26T12:52:21;2.90;;;1.40;;
64957;SDS011;51486;50.232;19.208;2023-06-26T12:55:07;2.67;;;1.75;;
64957;SDS011;51486;50.232;19.208;2023-06-26T12:57:53;2.50;;;1.48;;
64957;SDS011;51486;50.232;19.208;2023-06-26T13:00:38;4.32;;;2.20;;
64957;SDS011;51486;50.232;19.208;2023-06-26T13:03:26;1.80;;;1.33;;
64957;SDS011;51486;50.232;19.208;2023-06-26T13:06:12;2.67;;;1.63;;
64957;SDS011;51486;50.232;19.208;2023-06-26T13:08:59;1.98;;;1.42;;
64957;SDS011;51486;50.232;19.208;2023-06-26T13:11:45;2.92;;;1.67;;
64957;SDS011;51486;50.232;19.208;2023-06-26T13:14:31;3.50;;;1.58;;
64957;SDS011;51486;50.232;19.208;2023-06-26T13:17:18;2.67;;;1.67;;
64957;SDS011;51486;50.232;19.208;2023-06-26T13:20:03;3.17;;;1.73;;
64957;SDS011;51486;50.232;19.208;2023-06-26T13:22:51;2.75;;;1.73;;
64957;SDS011;51486;50.232;19.208;2023-06-26T13:25:37;3.17;;;1.30;;
64957;SDS011;51486;50.232;19.208;2023-06-26T13:28:22;2.92;;;1.90;;
64957;SDS011;51486;50.232;19.208;2023-06-26T13:31:08;2.75;;;1.58;;
64957;SDS011;51486;50.232;19.208;2023-06-26T13:33:56;3.83;;;2.10;;
64957;SDS011;51486;50.232;19.208;2023-06-26T13:36:43;4.00;;;1.60;;
64957;SDS011;51486;50.232;19.208;2023-06-26T13:39:29;3.22;;;1.67;;
64957;SDS011;51486;50.232;19.208;2023-06-26T13:42:15;5.40;;;1.60;;
64957;SDS011;51486;50.232;19.208;2023-06-26T13:45:02;2.13;;;1.40;;
64957;SDS011;51486;50.232;19.208;2023-06-26T13:47:48;4.80;;;1.45;;
64957;SDS011;51486;50.232;19.208;2023-06-26T13:50:34;2.15;;;1.45;;
64957;SDS011;51486;50.232;19.208;2023-06-26T13:53:20;2.60;;;1.52;;
64957;SDS011;51486;50.232;19.208;2023-06-26T13:56:06;2.63;;;1.77;;
64957;SDS011;51486;50.232;19.208;2023-06-26T13:58:53;2.85;;;1.48;;
64957;SDS011;51486;50.232;19.208;2023-06-26T14:01:39;2.22;;;1.48;;
64957;SDS011;51486;50.232;19.208;2023-06-26T14:04:27;7.65;;;1.73;;
64957;SDS011;51486;50.232;19.208;2023-06-26T14:07:13;2.03;;;1.45;;
64957;SDS011;51486;50.232;19.208;2023-06-26T14:09:59;4.05;;;1.45;;
64957;SDS011;51486;50.232;19.208;2023-06-26T14:12:45;2.85;;;2.00;;
64957;SDS011;51486;50.232;19.208;2023-06-26T14:15:32;1.48;;;1.20;;
64957;SDS011;51486;50.232;19.208;2023-06-26T14:18:18;4.00;;;1.90;;
64957;SDS011;51486;50.232;19.208;2023-06-26T14:21:05;2.50;;;1.55;;
64957;SDS011;51486;50.232;19.208;2023-06-26T14:23:51;3.63;;;1.50;;
64957;SDS011;51486;50.232;19.208;2023-06-26T14:26:37;2.67;;;1.58;;
64957;SDS011;51486;50.232;19.208;2023-06-26T14:29:24;2.85;;;1.60;;
64957;SDS011;51486;50.232;19.208;2023-06-26T14:32:10;5.95;;;1.70;;
64957;SDS011;51486;50.232;19.208;2023-06-26T14:34:56;5.00;;;2.03;;
64957;SDS011;51486;50.232;19.208;2023-06-26T14:37:42;1.98;;;1.38;;
64957;SDS011;51486;50.232;19.208;2023-06-26T14:40:29;2.17;;;1.63;;
64957;SDS011;51486;50.232;19.208;2023-06-26T14:43:15;1.98;;;1.52;;
64957;SDS011;51486;50.232;19.208;2023-06-26T14:46:00;3.30;;;1.55;;
64957;SDS011;51486;50.232;19.208;2023-06-26T14:48:46;2.92;;;1.77;;
64957;SDS011;51486;50.232;19.208;2023-06-26T14:51:33;4.07;;;1.40;;
64957;SDS011;51486;50.232;19.208;2023-06-26T14:54:19;3.85;;;1.88;;
64957;SDS011;51486;50.232;19.208;2023-06-26T14:57:06;3.95;;;1.85;;
64957;SDS011;51486;50.232;19.208;2023-06-26T14:59:52;1.83;;;1.17;;
64957;SDS011;51486;50.232;19.208;2023-06-26T15:02:37;1.42;;;1.17;;
64957;SDS011;51486;50.232;19.208;2023-06-26T15:05:23;2.22;;;1.45;;
64957;SDS011;51486;50.232;19.208;2023-06-26T15:08:09;3.25;;;1.83;;
64957;SDS011;51486;50.232;19.208;2023-06-26T15:10:56;2.47;;;1.50;;
64957;SDS011;51486;50.232;19.208;2023-06-26T15:13:42;1.85;;;1.35;;
64957;SDS011;51486;50.232;19.208;2023-06-26T15:16:27;4.63;;;1.80;;
64957;SDS011;51486;50.232;19.208;2023-06-26T15:19:13;2.85;;;1.25;;
64957;SDS011;51486;50.232;19.208;2023-06-26T15:21:59;2.30;;;1.25;;
64957;SDS011;51486;50.232;19.208;2023-06-26T15:24:45;2.97;;;1.73;;
64957;SDS011;51486;50.232;19.208;2023-06-26T15:27:31;3.35;;;1.80;;
64957;SDS011;51486;50.232;19.208;2023-06-26T15:30:17;2.53;;;1.48;;
64957;SDS011;51486;50.232;19.208;2023-06-26T15:33:02;3.30;;;1.58;;
64957;SDS011;51486;50.232;19.208;2023-06-26T15:35:49;3.88;;;1.70;;
64957;SDS011;51486;50.232;19.208;2023-06-26T15:38:35;2.42;;;1.38;;
64957;SDS011;51486;50.232;19.208;2023-06-26T15:41:20;3.22;;;1.63;;
64957;SDS011;51486;50.232;19.208;2023-06-26T15:44:06;2.10;;;1.35;;
64957;SDS011;51486;50.232;19.208;2023-06-26T15:46:52;3.30;;;1.52;;
64957;SDS011;51486;50.232;19.208;2023-06-26T15:49:38;1.92;;;1.35;;
64957;SDS011;51486;50.232;19.208;2023-06-26T15:52:24;3.33;;;1.85;;
64957;SDS011;51486;50.232;19.208;2023-06-26T15:55:09;10.60;;;3.78;;
64957;SDS011;51486;50.232;19.208;2023-06-26T15:57:55;4.45;;;2.15;;
64957;SDS011;51486;50.232;19.208;2023-06-26T16:00:41;2.05;;;1.30;;
64957;SDS011;51486;50.232;19.208;2023-06-26T16:03:27;7.05;;;1.98;;
64957;SDS011;51486;50.232;19.208;2023-06-26T16:06:13;6.25;;;1.63;;
64957;SDS011;51486;50.232;19.208;2023-06-26T16:08:58;2.53;;;1.67;;
64957;SDS011;51486;50.232;19.208;2023-06-26T16:11:45;1.50;;;0.93;;
64957;SDS011;51486;50.232;19.208;2023-06-26T16:14:30;3.38;;;1.77;;
64957;SDS011;51486;50.232;19.208;2023-06-26T16:17:16;2.45;;;1.30;;
64957;SDS011;51486;50.232;19.208;2023-06-26T16:20:02;2.47;;;1.38;;
64957;SDS011;51486;50.232;19.208;2023-06-26T16:22:48;4.55;;;2.10;;
64957;SDS011;51486;50.232;19.208;2023-06-26T16:25:33;1.40;;;1.13;;
64957;SDS011;51486;50.232;19.208;2023-06-26T16:28:19;4.57;;;1.70;;
64957;SDS011;51486;50.232;19.208;2023-06-26T16:31:05;15.35;;;1.40;;
64957;SDS011;51486;50.232;19.208;2023-06-26T16:33:51;2.80;;;1.63;;